sensor_id;sensor_type;location;lat;lon;timestamp;pressure;altitude;pressure_sealevel;temperature
11792;BMP180;5953;52.372;9.918;2023-03-03T00:01:11;101609.00;;;6.40
11792;BMP180;5953;52.372;9.918;2023-03-03T00:03:39;101620.00;;;6.30
11792;BMP180;5953;52.372;9.918;2023-03-03T00:06:09;101608.00;;;6.50
11792;BMP180;5953;52.372;9.918;2023-03-03T00:08:38;101615.00;;;6.40
11792;BMP180;5953;52.372;9.918;2023-03-03T00:11:08;101606.00;;;6.10
11792;BMP180;5953;52.372;9.918;2023-03-03T00:13:43;101615.00;;;6.20
11792;BMP180;5953;52.372;9.918;2023-03-03T00:16:15;101556.00;;;6.20
11792;BMP180;5953;52.372;9.918;2023-03-03T00:18:45;101618.00;;;6.00
11792;BMP180;5953;52.372;9.918;2023-03-03T00:21:23;101601.00;;;6.00
11792;BMP180;5953;52.372;9.918;2023-03-03T00:23:52;101638.00;;;6.20
11792;BMP180;5953;52.372;9.918;2023-03-03T00:26:24;101640.00;;;6.10
11792;BMP180;5953;52.372;9.918;2023-03-03T00:28:54;101648.00;;;6.10
11792;BMP180;5953;52.372;9.918;2023-03-03T00:31:28;101648.00;;;6.10
11792;BMP180;5953;52.372;9.918;2023-03-03T00:34:10;101631.00;;;6.10
11792;BMP180;5953;52.372;9.918;2023-03-03T00:36:40;101639.00;;;6.20
11792;BMP180;5953;52.372;9.918;2023-03-03T00:39:18;101640.00;;;6.10
11792;BMP180;5953;52.372;9.918;2023-03-03T00:41:47;101641.00;;;6.00
11792;BMP180;5953;52.372;9.918;2023-03-03T00:44:32;101653.00;;;6.00
11792;BMP180;5953;52.372;9.918;2023-03-03T00:47:26;101642.00;;;6.10
11792;BMP180;5953;52.372;9.918;2023-03-03T00:50:28;101636.00;;;6.20
11792;BMP180;5953;52.372;9.918;2023-03-03T00:53:02;101613.00;;;6.20
11792;BMP180;5953;52.372;9.918;2023-03-03T00:55:31;101639.00;;;6.30
11792;BMP180;5953;52.372;9.918;2023-03-03T00:58:01;101623.00;;;6.40
11792;BMP180;5953;52.372;9.918;2023-03-03T01:00:29;101633.00;;;6.30
11792;BMP180;5953;52.372;9.918;2023-03-03T01:03:02;101622.00;;;6.30
11792;BMP180;5953;52.372;9.918;2023-03-03T01:05:30;101617.00;;;6.20
11792;BMP180;5953;52.372;9.918;2023-03-03T01:07:58;101600.00;;;6.10
11792;BMP180;5953;52.372;9.918;2023-03-03T01:10:27;101588.00;;;6.20
11792;BMP180;5953;52.372;9.918;2023-03-03T01:12:57;101578.00;;;6.10
11792;BMP180;5953;52.372;9.918;2023-03-03T01:15:26;101631.00;;;6.20
11792;BMP180;5953;52.372;9.918;2023-03-03T01:17:54;101631.00;;;6.30
11792;BMP180;5953;52.372;9.918;2023-03-03T01:20:22;101632.00;;;6.20
11792;BMP180;5953;52.372;9.918;2023-03-03T01:22:50;101636.00;;;6.30
11792;BMP180;5953;52.372;9.918;2023-03-03T01:25:18;101639.00;;;6.30
11792;BMP180;5953;52.372;9.918;2023-03-03T01:27:46;101602.00;;;6.40
11792;BMP180;5953;52.372;9.918;2023-03-03T01:30:14;101623.00;;;6.40
11792;BMP180;5953;52.372;9.918;2023-03-03T01:32:44;101631.00;;;6.30
11792;BMP180;5953;52.372;9.918;2023-03-03T01:35:12;101636.00;;;6.20
11792;BMP180;5953;52.372;9.918;2023-03-03T01:37:40;101608.00;;;6.10
11792;BMP180;5953;52.372;9.918;2023-03-03T01:40:14;101591.00;;;6.10
11792;BMP180;5953;52.372;9.918;2023-03-03T01:42:42;101636.00;;;6.10
11792;BMP180;5953;52.372;9.918;2023-03-03T01:45:17;101612.00;;;6.00
11792;BMP180;5953;52.372;9.918;2023-03-03T01:47:57;101647.00;;;6.00
11792;BMP180;5953;52.372;9.918;2023-03-03T01:50:31;101630.00;;;5.90
11792;BMP180;5953;52.372;9.918;2023-03-03T01:53:03;101599.00;;;5.80
11792;BMP180;5953;52.372;9.918;2023-03-03T01:55:34;101627.00;;;5.80
11792;BMP180;5953;52.372;9.918;2023-03-03T01:58:06;101642.00;;;5.80
11792;BMP180;5953;52.372;9.918;2023-03-03T02:00:37;101639.00;;;5.70
11792;BMP180;5953;52.372;9.918;2023-03-03T02:03:08;101634.00;;;5.90
11792;BMP180;5953;52.372;9.918;2023-03-03T02:05:37;101627.00;;;5.80
11792;BMP180;5953;52.372;9.918;2023-03-03T02:08:06;101622.00;;;5.90
11792;BMP180;5953;52.372;9.918;2023-03-03T02:10:37;101617.00;;;6.00
11792;BMP180;5953;52.372;9.918;2023-03-03T02:13:05;101612.00;;;6.10
11792;BMP180;5953;52.372;9.918;2023-03-03T02:15:34;101612.00;;;6.20
11792;BMP180;5953;52.372;9.918;2023-03-03T02:18:04;101606.00;;;6.40
11792;BMP180;5953;52.372;9.918;2023-03-03T02:20:45;101618.00;;;6.40
11792;BMP180;5953;52.372;9.918;2023-03-03T02:23:22;101606.00;;;6.30
11792;BMP180;5953;52.372;9.918;2023-03-03T02:26:03;101599.00;;;6.30
11792;BMP180;5953;52.372;9.918;2023-03-03T02:28:33;101605.00;;;6.30
11792;BMP180;5953;52.372;9.918;2023-03-03T02:31:04;101599.00;;;6.40
11792;BMP180;5953;52.372;9.918;2023-03-03T02:33:33;101593.00;;;6.30
11792;BMP180;5953;52.372;9.918;2023-03-03T02:36:01;101596.00;;;6.40
11792;BMP180;5953;52.372;9.918;2023-03-03T02:38:33;101600.00;;;6.30
11792;BMP180;5953;52.372;9.918;2023-03-03T02:41:10;101590.00;;;6.30
11792;BMP180;5953;52.372;9.918;2023-03-03T02:43:45;101570.00;;;6.40
11792;BMP180;5953;52.372;9.918;2023-03-03T02:46:14;101557.00;;;6.40
11792;BMP180;5953;52.372;9.918;2023-03-03T02:48:42;101563.00;;;6.40
11792;BMP180;5953;52.372;9.918;2023-03-03T02:51:10;101589.00;;;6.30
11792;BMP180;5953;52.372;9.918;2023-03-03T02:53:38;101556.00;;;6.40
11792;BMP180;5953;52.372;9.918;2023-03-03T02:56:07;101583.00;;;6.30
11792;BMP180;5953;52.372;9.918;2023-03-03T02:58:35;101573.00;;;6.30
11792;BMP180;5953;52.372;9.918;2023-03-03T03:01:04;101576.00;;;6.10
11792;BMP180;5953;52.372;9.918;2023-03-03T03:03:32;101523.00;;;6.10
11792;BMP180;5953;52.372;9.918;2023-03-03T03:05:59;101536.00;;;6.40
11792;BMP180;5953;52.372;9.918;2023-03-03T03:08:27;101591.00;;;6.60
11792;BMP180;5953;52.372;9.918;2023-03-03T03:10:55;101576.00;;;6.50
11792;BMP180;5953;52.372;9.918;2023-03-03T03:13:25;101571.00;;;6.30
11792;BMP180;5953;52.372;9.918;2023-03-03T03:15:53;101545.00;;;6.40
11792;BMP180;5953;52.372;9.918;2023-03-03T03:18:21;101582.00;;;6.40
11792;BMP180;5953;52.372;9.918;2023-03-03T03:20:48;101561.00;;;6.40
11792;BMP180;5953;52.372;9.918;2023-03-03T03:23:16;101600.00;;;6.60
11792;BMP180;5953;52.372;9.918;2023-03-03T03:25:44;101589.00;;;6.60
11792;BMP180;5953;52.372;9.918;2023-03-03T03:28:13;101604.00;;;6.40
11792;BMP180;5953;52.372;9.918;2023-03-03T03:30:43;101603.00;;;6.40
11792;BMP180;5953;52.372;9.918;2023-03-03T03:33:11;101594.00;;;6.30
11792;BMP180;5953;52.372;9.918;2023-03-03T03:35:39;101603.00;;;6.50
11792;BMP180;5953;52.372;9.918;2023-03-03T03:38:11;101585.00;;;6.40
11792;BMP180;5953;52.372;9.918;2023-03-03T03:40:40;101585.00;;;6.80
11792;BMP180;5953;52.372;9.918;2023-03-03T03:43:08;101593.00;;;7.00
11792;BMP180;5953;52.372;9.918;2023-03-03T03:45:36;101588.00;;;7.20
11792;BMP180;5953;52.372;9.918;2023-03-03T03:48:05;101556.00;;;7.10
11792;BMP180;5953;52.372;9.918;2023-03-03T03:50:33;101581.00;;;7.10
11792;BMP180;5953;52.372;9.918;2023-03-03T03:53:01;101561.00;;;7.10
11792;BMP180;5953;52.372;9.918;2023-03-03T03:55:29;101561.00;;;7.00
11792;BMP180;5953;52.372;9.918;2023-03-03T03:57:57;101607.00;;;7.10
11792;BMP180;5953;52.372;9.918;2023-03-03T04:00:25;101614.00;;;7.20
11792;BMP180;5953;52.372;9.918;2023-03-03T04:02:53;101589.00;;;7.20
11792;BMP180;5953;52.372;9.918;2023-03-03T04:05:23;101582.00;;;7.20
11792;BMP180;5953;52.372;9.918;2023-03-03T04:07:50;101601.00;;;7.20
11792;BMP180;5953;52.372;9.918;2023-03-03T04:10:18;101614.00;;;7.20
11792;BMP180;5953;52.372;9.918;2023-03-03T04:12:46;101618.00;;;7.20
11792;BMP180;5953;52.372;9.918;2023-03-03T04:15:14;101591.00;;;7.10
11792;BMP180;5953;52.372;9.918;2023-03-03T04:17:42;101605.00;;;7.00
11792;BMP180;5953;52.372;9.918;2023-03-03T04:20:12;101618.00;;;7.10
11792;BMP180;5953;52.372;9.918;2023-03-03T04:22:42;101616.00;;;7.00
11792;BMP180;5953;52.372;9.918;2023-03-03T04:25:13;101619.00;;;7.00
11792;BMP180;5953;52.372;9.918;2023-03-03T04:27:42;101599.00;;;6.90
11792;BMP180;5953;52.372;9.918;2023-03-03T04:30:12;101621.00;;;6.90
11792;BMP180;5953;52.372;9.918;2023-03-03T04:32:40;101607.00;;;7.00
11792;BMP180;5953;52.372;9.918;2023-03-03T04:35:09;101620.00;;;7.00
11792;BMP180;5953;52.372;9.918;2023-03-03T04:37:37;101619.00;;;6.80
11792;BMP180;5953;52.372;9.918;2023-03-03T04:40:08;101605.00;;;6.80
11792;BMP180;5953;52.372;9.918;2023-03-03T04:42:36;101608.00;;;6.90
11792;BMP180;5953;52.372;9.918;2023-03-03T04:45:05;101622.00;;;6.90
11792;BMP180;5953;52.372;9.918;2023-03-03T04:47:33;101614.00;;;6.80
11792;BMP180;5953;52.372;9.918;2023-03-03T04:50:01;101629.00;;;6.80
11792;BMP180;5953;52.372;9.918;2023-03-03T04:52:29;101608.00;;;6.80
11792;BMP180;5953;52.372;9.918;2023-03-03T04:54:57;101605.00;;;6.80
11792;BMP180;5953;52.372;9.918;2023-03-03T04:57:26;101635.00;;;6.90
11792;BMP180;5953;52.372;9.918;2023-03-03T04:59:54;101629.00;;;6.80
11792;BMP180;5953;52.372;9.918;2023-03-03T05:02:22;101634.00;;;6.90
11792;BMP180;5953;52.372;9.918;2023-03-03T05:04:50;101628.00;;;6.90
11792;BMP180;5953;52.372;9.918;2023-03-03T05:07:17;101632.00;;;6.90
11792;BMP180;5953;52.372;9.918;2023-03-03T05:09:46;101617.00;;;7.00
11792;BMP180;5953;52.372;9.918;2023-03-03T05:12:14;101590.00;;;6.90
11792;BMP180;5953;52.372;9.918;2023-03-03T05:14:44;101578.00;;;6.90
11792;BMP180;5953;52.372;9.918;2023-03-03T05:17:11;101574.00;;;6.80
11792;BMP180;5953;52.372;9.918;2023-03-03T05:19:40;101606.00;;;6.80
11792;BMP180;5953;52.372;9.918;2023-03-03T05:22:08;101608.00;;;7.00
11792;BMP180;5953;52.372;9.918;2023-03-03T05:24:35;101598.00;;;7.10
11792;BMP180;5953;52.372;9.918;2023-03-03T05:27:03;101591.00;;;7.10
11792;BMP180;5953;52.372;9.918;2023-03-03T05:29:31;101597.00;;;7.00
11792;BMP180;5953;52.372;9.918;2023-03-03T05:32:00;101594.00;;;7.10
11792;BMP180;5953;52.372;9.918;2023-03-03T05:34:28;101603.00;;;7.10
11792;BMP180;5953;52.372;9.918;2023-03-03T05:36:56;101596.00;;;7.10
11792;BMP180;5953;52.372;9.918;2023-03-03T05:39:24;101577.00;;;6.90
11792;BMP180;5953;52.372;9.918;2023-03-03T05:41:52;101594.00;;;7.00
11792;BMP180;5953;52.372;9.918;2023-03-03T05:44:20;101604.00;;;7.20
11792;BMP180;5953;52.372;9.918;2023-03-03T05:46:48;101586.00;;;7.10
11792;BMP180;5953;52.372;9.918;2023-03-03T05:49:17;101588.00;;;6.90
11792;BMP180;5953;52.372;9.918;2023-03-03T05:51:46;101579.00;;;6.80
11792;BMP180;5953;52.372;9.918;2023-03-03T05:54:14;101590.00;;;6.90
11792;BMP180;5953;52.372;9.918;2023-03-03T05:56:42;101553.00;;;7.10
11792;BMP180;5953;52.372;9.918;2023-03-03T05:59:09;101598.00;;;7.20
11792;BMP180;5953;52.372;9.918;2023-03-03T06:01:37;101609.00;;;7.20
11792;BMP180;5953;52.372;9.918;2023-03-03T06:04:05;101600.00;;;7.30
11792;BMP180;5953;52.372;9.918;2023-03-03T06:06:35;101582.00;;;7.30
11792;BMP180;5953;52.372;9.918;2023-03-03T06:09:03;101614.00;;;7.30
11792;BMP180;5953;52.372;9.918;2023-03-03T06:11:31;101576.00;;;7.20
11792;BMP180;5953;52.372;9.918;2023-03-03T06:13:59;101606.00;;;7.10
11792;BMP180;5953;52.372;9.918;2023-03-03T06:16:27;101586.00;;;7.10
11792;BMP180;5953;52.372;9.918;2023-03-03T06:18:55;101638.00;;;7.20
11792;BMP180;5953;52.372;9.918;2023-03-03T06:21:23;101637.00;;;7.20
11792;BMP180;5953;52.372;9.918;2023-03-03T06:23:53;101642.00;;;7.10
11792;BMP180;5953;52.372;9.918;2023-03-03T06:26:21;101654.00;;;7.20
11792;BMP180;5953;52.372;9.918;2023-03-03T06:28:49;101661.00;;;7.20
11792;BMP180;5953;52.372;9.918;2023-03-03T06:31:23;101676.00;;;7.10
11792;BMP180;5953;52.372;9.918;2023-03-03T06:33:51;101648.00;;;7.00
11792;BMP180;5953;52.372;9.918;2023-03-03T06:36:19;101671.00;;;7.10
11792;BMP180;5953;52.372;9.918;2023-03-03T06:38:48;101663.00;;;7.10
11792;BMP180;5953;52.372;9.918;2023-03-03T06:41:17;101662.00;;;7.10
11792;BMP180;5953;52.372;9.918;2023-03-03T06:43:45;101666.00;;;7.00
11792;BMP180;5953;52.372;9.918;2023-03-03T06:46:13;101673.00;;;7.00
11792;BMP180;5953;52.372;9.918;2023-03-03T06:48:41;101653.00;;;7.00
11792;BMP180;5953;52.372;9.918;2023-03-03T06:51:20;101663.00;;;6.90
11792;BMP180;5953;52.372;9.918;2023-03-03T06:53:52;101662.00;;;7.00
11792;BMP180;5953;52.372;9.918;2023-03-03T06:56:22;101635.00;;;7.10
11792;BMP180;5953;52.372;9.918;2023-03-03T06:58:53;101637.00;;;7.00
11792;BMP180;5953;52.372;9.918;2023-03-03T07:01:21;101693.00;;;7.20
11792;BMP180;5953;52.372;9.918;2023-03-03T07:03:50;101676.00;;;7.20
11792;BMP180;5953;52.372;9.918;2023-03-03T07:06:23;101679.00;;;7.20
11792;BMP180;5953;52.372;9.918;2023-03-03T07:08:59;101704.00;;;7.20
11792;BMP180;5953;52.372;9.918;2023-03-03T07:11:32;101679.00;;;7.00
11792;BMP180;5953;52.372;9.918;2023-03-03T07:14:04;101691.00;;;7.00
11792;BMP180;5953;52.372;9.918;2023-03-03T07:16:36;101682.00;;;7.00
11792;BMP180;5953;52.372;9.918;2023-03-03T07:19:16;101691.00;;;7.00
11792;BMP180;5953;52.372;9.918;2023-03-03T07:21:49;101659.00;;;7.10
11792;BMP180;5953;52.372;9.918;2023-03-03T07:24:25;101642.00;;;6.90
11792;BMP180;5953;52.372;9.918;2023-03-03T07:26:59;101698.00;;;7.00
11792;BMP180;5953;52.372;9.918;2023-03-03T07:29:29;101681.00;;;7.10
11792;BMP180;5953;52.372;9.918;2023-03-03T07:31:58;101697.00;;;7.00
11792;BMP180;5953;52.372;9.918;2023-03-03T07:34:37;101662.00;;;6.80
11792;BMP180;5953;52.372;9.918;2023-03-03T07:37:14;101665.00;;;6.70
11792;BMP180;5953;52.372;9.918;2023-03-03T07:39:44;101654.00;;;6.90
11792;BMP180;5953;52.372;9.918;2023-03-03T07:42:20;101707.00;;;6.70
11792;BMP180;5953;52.372;9.918;2023-03-03T07:44:50;101698.00;;;6.90
11792;BMP180;5953;52.372;9.918;2023-03-03T07:47:22;101662.00;;;7.00
11792;BMP180;5953;52.372;9.918;2023-03-03T07:49:51;101699.00;;;7.10
11792;BMP180;5953;52.372;9.918;2023-03-03T07:52:27;101699.00;;;7.10
11792;BMP180;5953;52.372;9.918;2023-03-03T07:54:57;101670.00;;;7.10
11792;BMP180;5953;52.372;9.918;2023-03-03T07:57:32;101723.00;;;7.00
11792;BMP180;5953;52.372;9.918;2023-03-03T08:03:18;101715.00;;;7.00
11792;BMP180;5953;52.372;9.918;2023-03-03T08:05:49;101720.00;;;7.00
11792;BMP180;5953;52.372;9.918;2023-03-03T08:08:27;101715.00;;;7.20
11792;BMP180;5953;52.372;9.918;2023-03-03T08:11:02;101705.00;;;7.40
11792;BMP180;5953;52.372;9.918;2023-03-03T08:13:40;101660.00;;;7.00
11792;BMP180;5953;52.372;9.918;2023-03-03T08:16:29;101737.00;;;7.10
11792;BMP180;5953;52.372;9.918;2023-03-03T08:19:06;101722.00;;;7.20
11792;BMP180;5953;52.372;9.918;2023-03-03T08:21:40;101691.00;;;7.00
11792;BMP180;5953;52.372;9.918;2023-03-03T08:24:09;101715.00;;;6.90
11792;BMP180;5953;52.372;9.918;2023-03-03T08:26:56;101718.00;;;7.00
11792;BMP180;5953;52.372;9.918;2023-03-03T08:29:26;101716.00;;;7.20
11792;BMP180;5953;52.372;9.918;2023-03-03T08:32:02;101702.00;;;7.10
11792;BMP180;5953;52.372;9.918;2023-03-03T08:34:31;101741.00;;;7.10
11792;BMP180;5953;52.372;9.918;2023-03-03T08:36:59;101666.00;;;7.10
11792;BMP180;5953;52.372;9.918;2023-03-03T08:39:31;101748.00;;;7.10
11792;BMP180;5953;52.372;9.918;2023-03-03T08:42:01;101738.00;;;7.20
11792;BMP180;5953;52.372;9.918;2023-03-03T08:44:34;101742.00;;;7.30
11792;BMP180;5953;52.372;9.918;2023-03-03T08:47:02;101728.00;;;7.10
11792;BMP180;5953;52.372;9.918;2023-03-03T08:49:31;101740.00;;;7.30
11792;BMP180;5953;52.372;9.918;2023-03-03T08:52:02;101741.00;;;7.20
11792;BMP180;5953;52.372;9.918;2023-03-03T08:54:32;101736.00;;;7.10
11792;BMP180;5953;52.372;9.918;2023-03-03T08:57:00;101742.00;;;7.20
11792;BMP180;5953;52.372;9.918;2023-03-03T08:59:30;101748.00;;;7.00
11792;BMP180;5953;52.372;9.918;2023-03-03T09:02:03;101746.00;;;7.00
11792;BMP180;5953;52.372;9.918;2023-03-03T09:04:32;101736.00;;;7.10
11792;BMP180;5953;52.372;9.918;2023-03-03T09:07:00;101695.00;;;6.90
11792;BMP180;5953;52.372;9.918;2023-03-03T09:09:32;101701.00;;;7.00
11792;BMP180;5953;52.372;9.918;2023-03-03T09:12:14;101755.00;;;7.00
11792;BMP180;5953;52.372;9.918;2023-03-03T09:14:46;101732.00;;;7.10
11792;BMP180;5953;52.372;9.918;2023-03-03T09:17:22;101740.00;;;7.20
11792;BMP180;5953;52.372;9.918;2023-03-03T09:19:54;101699.00;;;7.20
11792;BMP180;5953;52.372;9.918;2023-03-03T09:22:35;101729.00;;;7.20
11792;BMP180;5953;52.372;9.918;2023-03-03T09:25:13;101729.00;;;7.20
11792;BMP180;5953;52.372;9.918;2023-03-03T09:27:52;101727.00;;;7.50
11792;BMP180;5953;52.372;9.918;2023-03-03T09:30:45;101664.00;;;7.60
11792;BMP180;5953;52.372;9.918;2023-03-03T09:33:24;101724.00;;;7.80
11792;BMP180;5953;52.372;9.918;2023-03-03T09:36:02;101742.00;;;7.80
11792;BMP180;5953;52.372;9.918;2023-03-03T09:38:34;101731.00;;;7.80
11792;BMP180;5953;52.372;9.918;2023-03-03T09:44:42;101732.00;;;8.10
11792;BMP180;5953;52.372;9.918;2023-03-03T09:47:31;101738.00;;;8.00
11792;BMP180;5953;52.372;9.918;2023-03-03T09:50:09;101747.00;;;7.70
11792;BMP180;5953;52.372;9.918;2023-03-03T09:52:45;101728.00;;;7.90
11792;BMP180;5953;52.372;9.918;2023-03-03T09:55:33;101743.00;;;8.00
11792;BMP180;5953;52.372;9.918;2023-03-03T09:58:19;101734.00;;;7.60
11792;BMP180;5953;52.372;9.918;2023-03-03T10:00:55;101695.00;;;7.90
11792;BMP180;5953;52.372;9.918;2023-03-03T10:04:15;101731.00;;;7.80
11792;BMP180;5953;52.372;9.918;2023-03-03T10:06:56;101725.00;;;7.90
11792;BMP180;5953;52.372;9.918;2023-03-03T10:09:50;101725.00;;;7.60
11792;BMP180;5953;52.372;9.918;2023-03-03T10:12:27;101744.00;;;7.30
11792;BMP180;5953;52.372;9.918;2023-03-03T10:15:10;101731.00;;;7.50
11792;BMP180;5953;52.372;9.918;2023-03-03T10:17:49;101757.00;;;7.70
11792;BMP180;5953;52.372;9.918;2023-03-03T10:20:38;101742.00;;;8.00
11792;BMP180;5953;52.372;9.918;2023-03-03T10:23:21;101731.00;;;8.10
11792;BMP180;5953;52.372;9.918;2023-03-03T10:26:05;101760.00;;;8.00
11792;BMP180;5953;52.372;9.918;2023-03-03T10:29:02;101713.00;;;8.10
11792;BMP180;5953;52.372;9.918;2023-03-03T10:31:42;101724.00;;;8.40
11792;BMP180;5953;52.372;9.918;2023-03-03T10:34:31;101752.00;;;8.30
11792;BMP180;5953;52.372;9.918;2023-03-03T10:37:10;101708.00;;;8.50
11792;BMP180;5953;52.372;9.918;2023-03-03T10:39:58;101755.00;;;8.30
11792;BMP180;5953;52.372;9.918;2023-03-03T10:42:46;101746.00;;;8.30
11792;BMP180;5953;52.372;9.918;2023-03-03T10:45:37;101744.00;;;8.30
11792;BMP180;5953;52.372;9.918;2023-03-03T10:48:18;101707.00;;;8.50
11792;BMP180;5953;52.372;9.918;2023-03-03T10:50:55;101756.00;;;8.60
11792;BMP180;5953;52.372;9.918;2023-03-03T10:53:33;101743.00;;;8.60
11792;BMP180;5953;52.372;9.918;2023-03-03T10:56:16;101765.00;;;8.70
11792;BMP180;5953;52.372;9.918;2023-03-03T10:59:02;101745.00;;;8.70
11792;BMP180;5953;52.372;9.918;2023-03-03T11:01:43;101730.00;;;8.70
11792;BMP180;5953;52.372;9.918;2023-03-03T11:04:39;101756.00;;;8.50
11792;BMP180;5953;52.372;9.918;2023-03-03T11:07:13;101701.00;;;8.40
11792;BMP180;5953;52.372;9.918;2023-03-03T11:10:04;101747.00;;;8.70
11792;BMP180;5953;52.372;9.918;2023-03-03T11:12:49;101738.00;;;8.40
11792;BMP180;5953;52.372;9.918;2023-03-03T11:15:34;101684.00;;;8.60
11792;BMP180;5953;52.372;9.918;2023-03-03T11:18:16;101757.00;;;8.80
11792;BMP180;5953;52.372;9.918;2023-03-03T11:20:58;101695.00;;;8.60
11792;BMP180;5953;52.372;9.918;2023-03-03T11:24:03;101734.00;;;8.50
11792;BMP180;5953;52.372;9.918;2023-03-03T11:27:03;101668.00;;;8.60
11792;BMP180;5953;52.372;9.918;2023-03-03T11:29:57;101729.00;;;9.10
11792;BMP180;5953;52.372;9.918;2023-03-03T11:32:46;101722.00;;;9.10
11792;BMP180;5953;52.372;9.918;2023-03-03T11:35:26;101705.00;;;8.90
11792;BMP180;5953;52.372;9.918;2023-03-03T11:38:13;101705.00;;;8.90
11792;BMP180;5953;52.372;9.918;2023-03-03T11:40:48;101721.00;;;8.90
11792;BMP180;5953;52.372;9.918;2023-03-03T11:43:26;101708.00;;;9.10
11792;BMP180;5953;52.372;9.918;2023-03-03T11:46:06;101711.00;;;9.20
11792;BMP180;5953;52.372;9.918;2023-03-03T11:48:41;101683.00;;;9.40
11792;BMP180;5953;52.372;9.918;2023-03-03T11:51:22;101708.00;;;9.10
11792;BMP180;5953;52.372;9.918;2023-03-03T11:54:08;101712.00;;;8.80
11792;BMP180;5953;52.372;9.918;2023-03-03T11:56:41;101714.00;;;9.20
11792;BMP180;5953;52.372;9.918;2023-03-03T11:59:34;101642.00;;;9.00
11792;BMP180;5953;52.372;9.918;2023-03-03T12:02:19;101698.00;;;9.00
11792;BMP180;5953;52.372;9.918;2023-03-03T12:04:52;101683.00;;;9.20
11792;BMP180;5953;52.372;9.918;2023-03-03T12:07:25;101689.00;;;9.10
11792;BMP180;5953;52.372;9.918;2023-03-03T12:10:05;101673.00;;;9.20
11792;BMP180;5953;52.372;9.918;2023-03-03T12:12:42;101688.00;;;9.20
11792;BMP180;5953;52.372;9.918;2023-03-03T12:15:35;101680.00;;;9.70
11792;BMP180;5953;52.372;9.918;2023-03-03T12:19:05;101689.00;;;9.80
11792;BMP180;5953;52.372;9.918;2023-03-03T12:25:20;101662.00;;;10.00
11792;BMP180;5953;52.372;9.918;2023-03-03T12:27:57;101682.00;;;10.00
11792;BMP180;5953;52.372;9.918;2023-03-03T12:30:40;101621.00;;;9.60
11792;BMP180;5953;52.372;9.918;2023-03-03T12:33:18;101623.00;;;9.70
11792;BMP180;5953;52.372;9.918;2023-03-03T12:35:56;101613.00;;;9.40
11792;BMP180;5953;52.372;9.918;2023-03-03T12:38:36;101628.00;;;9.50
11792;BMP180;5953;52.372;9.918;2023-03-03T12:41:10;101633.00;;;9.60
11792;BMP180;5953;52.372;9.918;2023-03-03T12:43:49;101623.00;;;9.70
11792;BMP180;5953;52.372;9.918;2023-03-03T12:46:24;101631.00;;;9.90
11792;BMP180;5953;52.372;9.918;2023-03-03T12:48:58;101665.00;;;10.20
11792;BMP180;5953;52.372;9.918;2023-03-03T12:51:33;101621.00;;;10.20
11792;BMP180;5953;52.372;9.918;2023-03-03T12:54:28;101657.00;;;10.20
11792;BMP180;5953;52.372;9.918;2023-03-03T12:57:11;101652.00;;;10.20
11792;BMP180;5953;52.372;9.918;2023-03-03T12:59:50;101636.00;;;10.50
11792;BMP180;5953;52.372;9.918;2023-03-03T13:02:38;101666.00;;;10.20
11792;BMP180;5953;52.372;9.918;2023-03-03T13:05:30;101641.00;;;10.50
11792;BMP180;5953;52.372;9.918;2023-03-03T13:08:18;101615.00;;;10.40
11792;BMP180;5953;52.372;9.918;2023-03-03T13:11:00;101649.00;;;10.40
11792;BMP180;5953;52.372;9.918;2023-03-03T13:13:38;101656.00;;;10.40
11792;BMP180;5953;52.372;9.918;2023-03-03T13:16:11;101647.00;;;10.50
11792;BMP180;5953;52.372;9.918;2023-03-03T13:18:53;101618.00;;;10.40
11792;BMP180;5953;52.372;9.918;2023-03-03T13:21:25;101634.00;;;10.40
11792;BMP180;5953;52.372;9.918;2023-03-03T13:24:04;101607.00;;;10.40
11792;BMP180;5953;52.372;9.918;2023-03-03T13:26:36;101581.00;;;10.80
11792;BMP180;5953;52.372;9.918;2023-03-03T13:29:12;101640.00;;;10.80
11792;BMP180;5953;52.372;9.918;2023-03-03T13:31:47;101633.00;;;10.90
11792;BMP180;5953;52.372;9.918;2023-03-03T13:35:00;101613.00;;;10.80
11792;BMP180;5953;52.372;9.918;2023-03-03T13:37:42;101601.00;;;10.50
11792;BMP180;5953;52.372;9.918;2023-03-03T13:40:16;101622.00;;;10.50
11792;BMP180;5953;52.372;9.918;2023-03-03T13:42:49;101594.00;;;10.20
11792;BMP180;5953;52.372;9.918;2023-03-03T13:45:24;101567.00;;;10.20
11792;BMP180;5953;52.372;9.918;2023-03-03T13:48:00;101598.00;;;10.30
11792;BMP180;5953;52.372;9.918;2023-03-03T13:50:36;101603.00;;;10.80
11792;BMP180;5953;52.372;9.918;2023-03-03T13:53:27;101627.00;;;10.60
11792;BMP180;5953;52.372;9.918;2023-03-03T13:56:08;101592.00;;;10.60
11792;BMP180;5953;52.372;9.918;2023-03-03T13:58:43;101614.00;;;10.70
11792;BMP180;5953;52.372;9.918;2023-03-03T14:01:22;101598.00;;;10.70
11792;BMP180;5953;52.372;9.918;2023-03-03T14:03:59;101585.00;;;10.50
11792;BMP180;5953;52.372;9.918;2023-03-03T14:06:30;101586.00;;;10.50
11792;BMP180;5953;52.372;9.918;2023-03-03T14:09:37;101597.00;;;10.80
11792;BMP180;5953;52.372;9.918;2023-03-03T14:12:20;101604.00;;;10.80
11792;BMP180;5953;52.372;9.918;2023-03-03T14:14:56;101574.00;;;11.00
11792;BMP180;5953;52.372;9.918;2023-03-03T14:18:01;101545.00;;;11.20
11792;BMP180;5953;52.372;9.918;2023-03-03T14:20:46;101594.00;;;11.10
11792;BMP180;5953;52.372;9.918;2023-03-03T14:23:21;101594.00;;;10.80
11792;BMP180;5953;52.372;9.918;2023-03-03T14:26:06;101593.00;;;10.90
11792;BMP180;5953;52.372;9.918;2023-03-03T14:28:39;101564.00;;;10.60
11792;BMP180;5953;52.372;9.918;2023-03-03T14:31:22;101595.00;;;10.80
11792;BMP180;5953;52.372;9.918;2023-03-03T14:34:01;101584.00;;;10.80
11792;BMP180;5953;52.372;9.918;2023-03-03T14:36:31;101542.00;;;10.60
11792;BMP180;5953;52.372;9.918;2023-03-03T14:39:01;101587.00;;;11.00
11792;BMP180;5953;52.372;9.918;2023-03-03T14:41:37;101578.00;;;11.00
11792;BMP180;5953;52.372;9.918;2023-03-03T14:44:27;101564.00;;;11.00
11792;BMP180;5953;52.372;9.918;2023-03-03T14:47:20;101508.00;;;10.90
11792;BMP180;5953;52.372;9.918;2023-03-03T14:49:53;101583.00;;;10.90
11792;BMP180;5953;52.372;9.918;2023-03-03T14:52:24;101578.00;;;10.80
11792;BMP180;5953;52.372;9.918;2023-03-03T14:54:56;101563.00;;;10.70
11792;BMP180;5953;52.372;9.918;2023-03-03T14:57:39;101572.00;;;10.50
11792;BMP180;5953;52.372;9.918;2023-03-03T15:00:32;101540.00;;;10.10
11792;BMP180;5953;52.372;9.918;2023-03-03T15:03:20;101561.00;;;10.20
11792;BMP180;5953;52.372;9.918;2023-03-03T15:06:07;101534.00;;;10.20
11792;BMP180;5953;52.372;9.918;2023-03-03T15:08:39;101536.00;;;10.20
11792;BMP180;5953;52.372;9.918;2023-03-03T15:11:18;101507.00;;;10.60
11792;BMP180;5953;52.372;9.918;2023-03-03T15:13:48;101565.00;;;10.80